sensor_id;sensor_type;location;lat;lon;timestamp;pressure;altitude;pressure_sealevel;temperature;humidity
80321;BME280;69633;47.066;15.450;2023-05-06T00:00:09;97581.50;;;15.04;65.12
80321;BME280;69633;47.066;15.450;2023-05-06T00:02:37;97573.81;;;14.98;65.50
80321;BME280;69633;47.066;15.450;2023-05-06T00:05:02;97570.28;;;14.94;65.77
80321;BME280;69633;47.066;15.450;2023-05-06T00:07:29;97576.81;;;14.97;65.68
80321;BME280;69633;47.066;15.450;2023-05-06T00:09:54;97572.97;;;14.94;65.46
80321;BME280;69633;47.066;15.450;2023-05-06T00:12:20;97574.50;;;14.95;65.45
80321;BME280;69633;47.066;15.450;2023-05-06T00:14:45;97585.94;;;14.96;65.29
80321;BME280;69633;47.066;15.450;2023-05-06T00:17:12;97576.88;;;15.00;65.25
80321;BME280;69633;47.066;15.450;2023-05-06T00:19:46;97578.78;;;15.00;65.06
80321;BME280;69633;47.066;15.450;2023-05-06T00:22:16;97583.72;;;14.98;65.47
80321;BME280;69633;47.066;15.450;2023-05-06T00:24:42;97578.31;;;14.94;65.29
80321;BME280;69633;47.066;15.450;2023-05-06T00:27:07;97575.50;;;14.87;65.30
80321;BME280;69633;47.066;15.450;2023-05-06T00:29:33;97572.06;;;14.87;65.38
80321;BME280;69633;47.066;15.450;2023-05-06T00:31:58;97565.22;;;14.89;65.20
80321;BME280;69633;47.066;15.450;2023-05-06T00:34:23;97571.41;;;14.93;65.32
80321;BME280;69633;47.066;15.450;2023-05-06T00:36:49;97569.84;;;14.92;65.46
80321;BME280;69633;47.066;15.450;2023-05-06T00:39:14;97572.91;;;14.91;65.35
80321;BME280;69633;47.066;15.450;2023-05-06T00:41:40;97582.09;;;14.93;65.50
80321;BME280;69633;47.066;15.450;2023-05-06T00:44:06;97579.84;;;14.95;65.62
80321;BME280;69633;47.066;15.450;2023-05-06T00:46:32;97582.53;;;14.95;65.35
80321;BME280;69633;47.066;15.450;2023-05-06T00:48:57;97586.72;;;14.96;65.51
80321;BME280;69633;47.066;15.450;2023-05-06T00:51:23;97578.44;;;15.02;65.48
80321;BME280;69633;47.066;15.450;2023-05-06T00:53:50;97582.59;;;14.99;65.34
80321;BME280;69633;47.066;15.450;2023-05-06T00:56:15;97580.69;;;14.99;65.56
80321;BME280;69633;47.066;15.450;2023-05-06T00:58:42;97585.66;;;15.01;65.15
80321;BME280;69633;47.066;15.450;2023-05-06T01:01:08;97586.03;;;14.99;65.32
80321;BME280;69633;47.066;15.450;2023-05-06T01:03:33;97583.78;;;15.02;65.21
80321;BME280;69633;47.066;15.450;2023-05-06T01:06:09;97589.94;;;15.06;65.03
80321;BME280;69633;47.066;15.450;2023-05-06T01:08:46;97587.75;;;15.11;64.56
80321;BME280;69633;47.066;15.450;2023-05-06T01:11:26;97590.47;;;15.15;64.89
80321;BME280;69633;47.066;15.450;2023-05-06T01:16:37;97586.16;;;15.07;64.90
80321;BME280;69633;47.066;15.450;2023-05-06T01:19:07;97579.16;;;14.98;65.16
80321;BME280;69633;47.066;15.450;2023-05-06T01:21:34;97596.03;;;15.03;65.26
80321;BME280;69633;47.066;15.450;2023-05-06T01:24:00;97590.66;;;15.03;64.75
80321;BME280;69633;47.066;15.450;2023-05-06T01:26:26;97593.28;;;14.99;65.10
80321;BME280;69633;47.066;15.450;2023-05-06T01:28:53;97601.09;;;14.88;65.46
80321;BME280;69633;47.066;15.450;2023-05-06T01:31:28;97600.78;;;14.71;66.04
80321;BME280;69633;47.066;15.450;2023-05-06T01:39:42;97602.19;;;14.65;66.32
80321;BME280;69633;47.066;15.450;2023-05-06T01:42:08;97600.69;;;14.67;66.26
80321;BME280;69633;47.066;15.450;2023-05-06T01:44:37;97603.09;;;14.72;66.03
80321;BME280;69633;47.066;15.450;2023-05-06T01:47:04;97592.09;;;14.77;65.62
80321;BME280;69633;47.066;15.450;2023-05-06T01:49:31;97592.09;;;14.77;65.64
80321;BME280;69633;47.066;15.450;2023-05-06T01:51:57;97590.28;;;14.81;65.63
80321;BME280;69633;47.066;15.450;2023-05-06T01:54:22;97591.81;;;14.82;65.78
80321;BME280;69633;47.066;15.450;2023-05-06T01:56:48;97598.72;;;14.83;65.78
80321;BME280;69633;47.066;15.450;2023-05-06T01:59:13;97591.41;;;14.80;65.52
80321;BME280;69633;47.066;15.450;2023-05-06T02:01:39;97593.66;;;14.78;65.81
80321;BME280;69633;47.066;15.450;2023-05-06T02:04:04;97595.94;;;14.76;65.77
80321;BME280;69633;47.066;15.450;2023-05-06T02:06:30;97600.56;;;14.79;66.08
80321;BME280;69633;47.066;15.450;2023-05-06T02:08:56;97610.31;;;14.91;65.52
80321;BME280;69633;47.066;15.450;2023-05-06T02:11:21;97594.47;;;15.02;65.33
80321;BME280;69633;47.066;15.450;2023-05-06T02:13:47;97596.84;;;15.07;64.88
80321;BME280;69633;47.066;15.450;2023-05-06T02:16:12;97595.06;;;15.14;65.02
80321;BME280;69633;47.066;15.450;2023-05-06T02:18:38;97590.25;;;15.23;64.73
80321;BME280;69633;47.066;15.450;2023-05-06T02:21:03;97592.97;;;15.27;64.24
80321;BME280;69633;47.066;15.450;2023-05-06T02:23:29;97592.69;;;15.32;64.31
80321;BME280;69633;47.066;15.450;2023-05-06T02:25:54;97579.66;;;15.30;64.63
80321;BME280;69633;47.066;15.450;2023-05-06T02:28:22;97576.09;;;15.23;64.39
80321;BME280;69633;47.066;15.450;2023-05-06T02:30:47;97582.16;;;15.20;64.67
80321;BME280;69633;47.066;15.450;2023-05-06T02:33:13;97581.16;;;15.28;64.44
80321;BME280;69633;47.066;15.450;2023-05-06T02:35:38;97569.56;;;15.20;64.47
80321;BME280;69633;47.066;15.450;2023-05-06T02:38:04;97576.31;;;15.11;64.93
80321;BME280;69633;47.066;15.450;2023-05-06T02:40:29;97578.53;;;15.09;64.98
80321;BME280;69633;47.066;15.450;2023-05-06T02:42:55;97575.75;;;15.02;64.98
80321;BME280;69633;47.066;15.450;2023-05-06T02:45:20;97569.91;;;14.96;65.23
80321;BME280;69633;47.066;15.450;2023-05-06T02:47:46;97566.44;;;14.92;65.40
80321;BME280;69633;47.066;15.450;2023-05-06T02:50:11;97566.50;;;14.95;65.14
80321;BME280;69633;47.066;15.450;2023-05-06T02:52:37;97566.34;;;14.88;64.88
80321;BME280;69633;47.066;15.450;2023-05-06T02:55:02;97559.53;;;14.91;65.32
80321;BME280;69633;47.066;15.450;2023-05-06T02:57:28;97566.00;;;14.90;65.29
80321;BME280;69633;47.066;15.450;2023-05-06T02:59:53;97568.97;;;14.85;65.46
80321;BME280;69633;47.066;15.450;2023-05-06T03:02:18;97569.66;;;14.82;65.74
80321;BME280;69633;47.066;15.450;2023-05-06T03:04:44;97569.53;;;14.75;66.14
80321;BME280;69633;47.066;15.450;2023-05-06T03:07:10;97564.84;;;14.68;66.25
80321;BME280;69633;47.066;15.450;2023-05-06T03:09:37;97573.16;;;14.63;65.99
80321;BME280;69633;47.066;15.450;2023-05-06T03:12:03;97570.97;;;14.69;66.00
80321;BME280;69633;47.066;15.450;2023-05-06T03:14:28;97569.41;;;14.68;66.29
80321;BME280;69633;47.066;15.450;2023-05-06T03:16:53;97571.59;;;14.62;66.40
80321;BME280;69633;47.066;15.450;2023-05-06T03:19:19;97573.09;;;14.60;66.65
80321;BME280;69633;47.066;15.450;2023-05-06T03:21:44;97571.91;;;14.57;66.64
80321;BME280;69633;47.066;15.450;2023-05-06T03:24:10;97571.13;;;14.57;66.56
80321;BME280;69633;47.066;15.450;2023-05-06T03:26:35;97566.56;;;14.57;66.87
80321;BME280;69633;47.066;15.450;2023-05-06T03:29:01;97565.50;;;14.62;66.42
80321;BME280;69633;47.066;15.450;2023-05-06T03:31:26;97557.44;;;14.58;66.51
80321;BME280;69633;47.066;15.450;2023-05-06T03:33:52;97566.69;;;14.64;66.51
80321;BME280;69633;47.066;15.450;2023-05-06T03:36:17;97564.13;;;14.71;66.00
80321;BME280;69633;47.066;15.450;2023-05-06T03:38:43;97556.47;;;14.70;66.01
80321;BME280;69633;47.066;15.450;2023-05-06T03:41:08;97557.97;;;14.67;66.50
80321;BME280;69633;47.066;15.450;2023-05-06T03:43:33;97557.19;;;14.67;66.10
80321;BME280;69633;47.066;15.450;2023-05-06T03:46:00;97553.47;;;14.71;66.13
80321;BME280;69633;47.066;15.450;2023-05-06T03:48:25;97552.03;;;14.77;65.93
80321;BME280;69633;47.066;15.450;2023-05-06T03:50:51;97548.66;;;14.80;65.97
80321;BME280;69633;47.066;15.450;2023-05-06T03:53:16;97547.56;;;14.85;65.90
80321;BME280;69633;47.066;15.450;2023-05-06T03:55:42;97549.44;;;14.81;66.07
80321;BME280;69633;47.066;15.450;2023-05-06T03:58:07;97547.41;;;14.74;66.12
80321;BME280;69633;47.066;15.450;2023-05-06T04:00:32;97547.41;;;14.74;66.20
80321;BME280;69633;47.066;15.450;2023-05-06T04:02:58;97558.91;;;14.78;65.95
80321;BME280;69633;47.066;15.450;2023-05-06T04:05:23;97563.31;;;14.67;66.40
80321;BME280;69633;47.066;15.450;2023-05-06T04:07:49;97562.34;;;14.56;66.67
80321;BME280;69633;47.066;15.450;2023-05-06T04:10:15;97569.81;;;14.47;67.13
80321;BME280;69633;47.066;15.450;2023-05-06T04:12:40;97573.59;;;14.46;67.00
80321;BME280;69633;47.066;15.450;2023-05-06T04:15:06;97569.81;;;14.47;67.15
80321;BME280;69633;47.066;15.450;2023-05-06T04:17:32;97568.97;;;14.43;67.12
80321;BME280;69633;47.066;15.450;2023-05-06T04:19:57;97567.81;;;14.44;67.23
80321;BME280;69633;47.066;15.450;2023-05-06T04:22:22;97558.53;;;14.57;66.89
80321;BME280;69633;47.066;15.450;2023-05-06T04:24:48;97558.66;;;14.64;66.68
80321;BME280;69633;47.066;15.450;2023-05-06T04:27:13;97551.84;;;14.67;66.51
80321;BME280;69633;47.066;15.450;2023-05-06T04:29:39;97560.91;;;14.62;66.55
80321;BME280;69633;47.066;15.450;2023-05-06T04:32:04;97560.78;;;14.55;66.73
80321;BME280;69633;47.066;15.450;2023-05-06T04:34:30;97573.72;;;14.53;67.17
80321;BME280;69633;47.066;15.450;2023-05-06T04:36:56;97582.84;;;14.52;67.45
80321;BME280;69633;47.066;15.450;2023-05-06T04:39:23;97584.53;;;14.60;66.94
80321;BME280;69633;47.066;15.450;2023-05-06T04:41:48;97567.09;;;14.66;66.76
80321;BME280;69633;47.066;15.450;2023-05-06T04:44:14;97569.66;;;14.82;66.50
80321;BME280;69633;47.066;15.450;2023-05-06T04:46:39;97578.06;;;14.80;66.14
80321;BME280;69633;47.066;15.450;2023-05-06T04:49:05;97587.41;;;14.71;66.96
80321;BME280;69633;47.066;15.450;2023-05-06T04:51:30;97592.56;;;14.60;67.19
80321;BME280;69633;47.066;15.450;2023-05-06T04:53:56;97582.84;;;14.71;67.07
80321;BME280;69633;47.066;15.450;2023-05-06T04:56:21;97580.47;;;14.89;66.31
80321;BME280;69633;47.066;15.450;2023-05-06T04:58:47;97579.66;;;15.08;65.93
80321;BME280;69633;47.066;15.450;2023-05-06T05:01:12;97588.91;;;15.33;65.14
80321;BME280;69633;47.066;15.450;2023-05-06T05:03:37;97590.03;;;15.55;64.42
80321;BME280;69633;47.066;15.450;2023-05-06T05:06:03;97597.19;;;15.73;63.74
80321;BME280;69633;47.066;15.450;2023-05-06T05:08:28;97601.63;;;15.88;63.40
80321;BME280;69633;47.066;15.450;2023-05-06T05:10:54;97595.41;;;16.11;62.76
80321;BME280;69633;47.066;15.450;2023-05-06T05:13:19;97600.94;;;16.25;62.17
80321;BME280;69633;47.066;15.450;2023-05-06T05:15:45;97599.41;;;16.24;62.21
80321;BME280;69633;47.066;15.450;2023-05-06T05:18:11;97601.06;;;16.35;62.22
80321;BME280;69633;47.066;15.450;2023-05-06T05:20:36;97606.09;;;16.37;61.93
80321;BME280;69633;47.066;15.450;2023-05-06T05:23:02;97606.47;;;16.39;62.01
80321;BME280;69633;47.066;15.450;2023-05-06T05:25:27;97603.41;;;16.37;62.28
80321;BME280;69633;47.066;15.450;2023-05-06T05:27:53;97601.19;;;16.46;62.25
80321;BME280;69633;47.066;15.450;2023-05-06T05:30:18;97609.03;;;16.58;61.91
80321;BME280;69633;47.066;15.450;2023-05-06T05:32:44;97605.31;;;16.66;61.40
80321;BME280;69633;47.066;15.450;2023-05-06T05:35:09;97607.75;;;16.78;60.92
80321;BME280;69633;47.066;15.450;2023-05-06T05:37:35;97612.38;;;16.81;61.14
80321;BME280;69633;47.066;15.450;2023-05-06T05:40:01;97605.38;;;16.73;61.25
80321;BME280;69633;47.066;15.450;2023-05-06T05:42:27;97607.50;;;16.57;61.73
80321;BME280;69633;47.066;15.450;2023-05-06T05:44:55;97608.19;;;16.54;61.87
80321;BME280;69633;47.066;15.450;2023-05-06T05:47:20;97617.56;;;16.67;61.79
80321;BME280;69633;47.066;15.450;2023-05-06T05:49:46;97622.28;;;16.77;61.11
80321;BME280;69633;47.066;15.450;2023-05-06T05:52:11;97619.28;;;16.82;61.32
80321;BME280;69633;47.066;15.450;2023-05-06T05:54:37;97619.41;;;16.97;60.75
80321;BME280;69633;47.066;15.450;2023-05-06T05:57:02;97626.41;;;17.05;60.93
80321;BME280;69633;47.066;15.450;2023-05-06T05:59:28;97619.69;;;17.25;59.96
80321;BME280;69633;47.066;15.450;2023-05-06T06:01:53;97616.28;;;17.28;59.11
80321;BME280;69633;47.066;15.450;2023-05-06T06:04:18;97630.09;;;17.30;59.30
80321;BME280;69633;47.066;15.450;2023-05-06T06:06:44;97619.00;;;17.31;59.18
80321;BME280;69633;47.066;15.450;2023-05-06T06:09:10;97624.41;;;17.38;58.84
80321;BME280;69633;47.066;15.450;2023-05-06T06:11:36;97620.91;;;17.31;59.21
80321;BME280;69633;47.066;15.450;2023-05-06T06:14:01;97627.00;;;17.28;59.00
80321;BME280;69633;47.066;15.450;2023-05-06T06:16:27;97626.59;;;17.26;59.18
80321;BME280;69633;47.066;15.450;2023-05-06T06:18:52;97627.84;;;17.35;58.80
80321;BME280;69633;47.066;15.450;2023-05-06T06:21:18;97627.47;;;17.37;58.94
80321;BME280;69633;47.066;15.450;2023-05-06T06:23:43;97619.16;;;17.53;58.58
80321;BME280;69633;47.066;15.450;2023-05-06T06:26:09;97632.50;;;17.42;58.82
80321;BME280;69633;47.066;15.450;2023-05-06T06:28:35;97624.44;;;17.42;58.61
80321;BME280;69633;47.066;15.450;2023-05-06T06:31:01;97623.69;;;17.45;58.67
80321;BME280;69633;47.066;15.450;2023-05-06T06:33:26;97632.28;;;17.58;58.33
80321;BME280;69633;47.066;15.450;2023-05-06T06:35:52;97626.13;;;17.57;58.35
80321;BME280;69633;47.066;15.450;2023-05-06T06:38:17;97630.88;;;17.74;57.87
80321;BME280;69633;47.066;15.450;2023-05-06T06:40:43;97630.84;;;17.71;58.13
80321;BME280;69633;47.066;15.450;2023-05-06T06:43:08;97626.94;;;17.61;58.39
80321;BME280;69633;47.066;15.450;2023-05-06T06:45:34;97631.56;;;17.64;58.24
80321;BME280;69633;47.066;15.450;2023-05-06T06:47:59;97631.59;;;17.68;57.90
80321;BME280;69633;47.066;15.450;2023-05-06T06:50:25;97633.16;;;17.72;57.84
80321;BME280;69633;47.066;15.450;2023-05-06T06:52:51;97636.75;;;17.91;57.44
80321;BME280;69633;47.066;15.450;2023-05-06T06:55:16;97619.66;;;18.20;56.59
80321;BME280;69633;47.066;15.450;2023-05-06T06:57:42;97624.75;;;18.43;56.16
80321;BME280;69633;47.066;15.450;2023-05-06T07:00:08;97619.16;;;18.76;55.17
80321;BME280;69633;47.066;15.450;2023-05-06T07:02:33;97621.53;;;19.13;54.51
80321;BME280;69633;47.066;15.450;2023-05-06T07:04:59;97620.38;;;19.07;53.82
80321;BME280;69633;47.066;15.450;2023-05-06T07:07:24;97621.50;;;18.99;53.94
80321;BME280;69633;47.066;15.450;2023-05-06T07:09:49;97617.66;;;18.96;53.69
80321;BME280;69633;47.066;15.450;2023-05-06T07:12:15;97622.28;;;19.03;53.71
80321;BME280;69633;47.066;15.450;2023-05-06T07:14:40;97620.75;;;19.09;53.47
80321;BME280;69633;47.066;15.450;2023-05-06T07:17:06;97621.53;;;19.13;53.47
80321;BME280;69633;47.066;15.450;2023-05-06T07:19:31;97623.72;;;18.72;54.65
80321;BME280;69633;47.066;15.450;2023-05-06T07:21:57;97621.78;;;18.58;54.99
80321;BME280;69633;47.066;15.450;2023-05-06T07:24:22;97619.09;;;18.58;54.91
80321;BME280;69633;47.066;15.450;2023-05-06T07:26:48;97616.81;;;18.71;55.15
80321;BME280;69633;47.066;15.450;2023-05-06T07:29:13;97621.50;;;18.95;54.14
80321;BME280;69633;47.066;15.450;2023-05-06T07:31:39;97616.94;;;19.17;54.17
80321;BME280;69633;47.066;15.450;2023-05-06T07:34:05;97618.81;;;18.99;54.78
80321;BME280;69633;47.066;15.450;2023-05-06T07:36:32;97621.53;;;19.20;54.45
80321;BME280;69633;47.066;15.450;2023-05-06T07:39:05;97616.97;;;19.38;52.77
80321;BME280;69633;47.066;15.450;2023-05-06T07:41:30;97613.53;;;19.55;52.09
80321;BME280;69633;47.066;15.450;2023-05-06T07:43:55;97615.44;;;19.55;52.11
80321;BME280;69633;47.066;15.450;2023-05-06T07:46:21;97615.41;;;19.41;52.47
80321;BME280;69633;47.066;15.450;2023-05-06T07:48:46;97614.66;;;19.29;53.06
80321;BME280;69633;47.066;15.450;2023-05-06T07:51:12;97617.72;;;19.35;52.89
80321;BME280;69633;47.066;15.450;2023-05-06T07:53:37;97612.34;;;19.77;52.04
80321;BME280;69633;47.066;15.450;2023-05-06T07:56:04;97607.69;;;20.17;50.82
80321;BME280;69633;47.066;15.450;2023-05-06T07:58:30;97608.47;;;20.03;51.33
80321;BME280;69633;47.066;15.450;2023-05-06T08:00:56;97617.75;;;19.77;52.01
80321;BME280;69633;47.066;15.450;2023-05-06T08:03:22;97607.69;;;20.17;51.28
80321;BME280;69633;47.066;15.450;2023-05-06T08:05:51;97609.47;;;20.55;50.21
80321;BME280;69633;47.066;15.450;2023-05-06T08:08:20;97618.25;;;20.81;49.91
80321;BME280;69633;47.066;15.450;2023-05-06T08:10:46;97608.38;;;21.18;48.73
80321;BME280;69633;47.066;15.450;2023-05-06T08:13:11;97621.72;;;21.43;48.37
80321;BME280;69633;47.066;15.450;2023-05-06T08:15:37;97611.78;;;21.33;48.48
80321;BME280;69633;47.066;15.450;2023-05-06T08:18:03;97609.94;;;21.67;47.93
80321;BME280;69633;47.066;15.450;2023-05-06T08:20:29;97611.13;;;22.11;47.08
80321;BME280;69633;47.066;15.450;2023-05-06T08:22:54;97606.16;;;22.40;46.58
80321;BME280;69633;47.066;15.450;2023-05-06T08:25:20;97609.47;;;22.21;46.76
80321;BME280;69633;47.066;15.450;2023-05-06T08:27:45;97596.59;;;22.32;46.91
80321;BME280;69633;47.066;15.450;2023-05-06T08:30:11;97601.44;;;22.47;46.63
80321;BME280;69633;47.066;15.450;2023-05-06T08:32:37;97610.03;;;22.73;45.94
80321;BME280;69633;47.066;15.450;2023-05-06T08:35:04;97604.44;;;22.87;45.78
80321;BME280;69633;47.066;15.450;2023-05-06T08:37:30;97597.25;;;22.73;45.88
80321;BME280;69633;47.066;15.450;2023-05-06T08:39:56;97596.66;;;22.58;46.20
80321;BME280;69633;47.066;15.450;2023-05-06T08:42:24;97601.19;;;22.69;45.70
80321;BME280;69633;47.066;15.450;2023-05-06T08:44:51;97601.97;;;22.65;46.24
80321;BME280;69633;47.066;15.450;2023-05-06T08:47:18;97601.75;;;22.87;45.89
80321;BME280;69633;47.066;15.450;2023-05-06T08:49:44;97607.78;;;23.21;44.98
80321;BME280;69633;47.066;15.450;2023-05-06T08:52:10;97591.72;;;23.10;45.15
80321;BME280;69633;47.066;15.450;2023-05-06T08:54:37;97596.06;;;23.04;44.98
80321;BME280;69633;47.066;15.450;2023-05-06T08:57:04;97594.56;;;23.00;45.48
80321;BME280;69633;47.066;15.450;2023-05-06T08:59:32;97598.38;;;23.56;44.57
80321;BME280;69633;47.066;15.450;2023-05-06T09:01:59;97598.19;;;23.90;43.42
80321;BME280;69633;47.066;15.450;2023-05-06T09:04:26;97584.81;;;24.22;42.75
80321;BME280;69633;47.066;15.450;2023-05-06T09:06:51;97586.22;;;24.50;42.42
80321;BME280;69633;47.066;15.450;2023-05-06T09:09:17;97592.81;;;24.49;41.97
80321;BME280;69633;47.066;15.450;2023-05-06T09:11:42;97587.13;;;24.24;42.61
80321;BME280;69633;47.066;15.450;2023-05-06T09:16:36;97579.75;;;24.24;42.55
80321;BME280;69633;47.066;15.450;2023-05-06T09:19:02;97573.91;;;24.45;42.46
80321;BME280;69633;47.066;15.450;2023-05-06T09:21:33;97574.66;;;24.85;41.79
80321;BME280;69633;47.066;15.450;2023-05-06T09:23:59;97573.03;;;24.68;41.18
80321;BME280;69633;47.066;15.450;2023-05-06T09:26:27;97573.09;;;24.84;41.55
80321;BME280;69633;47.066;15.450;2023-05-06T09:28:52;97573.88;;;25.01;40.97
80321;BME280;69633;47.066;15.450;2023-05-06T09:31:19;97577.66;;;25.07;40.62
80321;BME280;69633;47.066;15.450;2023-05-06T09:33:44;97577.06;;;25.32;40.69
80321;BME280;69633;47.066;15.450;2023-05-06T09:36:10;97575.19;;;25.45;40.47
80321;BME280;69633;47.066;15.450;2023-05-06T09:38:39;97579.34;;;25.33;39.97
80321;BME280;69633;47.066;15.450;2023-05-06T09:41:06;97572.22;;;25.07;39.91
80321;BME280;69633;47.066;15.450;2023-05-06T09:43:31;97568.31;;;25.24;39.98
80321;BME280;69633;47.066;15.450;2023-05-06T09:45:57;97557.38;;;25.12;39.57
80321;BME280;69633;47.066;15.450;2023-05-06T09:48:28;97553.66;;;24.86;38.47
80321;BME280;69633;47.066;15.450;2023-05-06T09:50:53;97559.44;;;24.88;38.18
80321;BME280;69633;47.066;15.450;2023-05-06T09:53:20;97555.56;;;25.05;36.71
80321;BME280;69633;47.066;15.450;2023-05-06T09:55:47;97557.19;;;25.02;35.88
80321;BME280;69633;47.066;15.450;2023-05-06T09:58:15;97549.59;;;25.42;36.22
80321;BME280;69633;47.066;15.450;2023-05-06T10:00:42;97551.31;;;25.69;36.70
80321;BME280;69633;47.066;15.450;2023-05-06T10:03:08;97546.53;;;25.73;37.53
80321;BME280;69633;47.066;15.450;2023-05-06T10:05:36;97542.41;;;25.97;36.39
80321;BME280;69633;47.066;15.450;2023-05-06T10:08:02;97533.78;;;25.86;36.35
80321;BME280;69633;47.066;15.450;2023-05-06T10:10:33;97548.25;;;25.67;37.18
80321;BME280;69633;47.066;15.450;2023-05-06T10:13:01;97543.53;;;25.22;37.14
80321;BME280;69633;47.066;15.450;2023-05-06T10:15:28;97534.19;;;25.07;38.33
80321;BME280;69633;47.066;15.450;2023-05-06T10:17:54;97531.81;;;24.93;38.37
80321;BME280;69633;47.066;15.450;2023-05-06T10:20:23;97532.97;;;24.92;39.47
80321;BME280;69633;47.066;15.450;2023-05-06T10:23:02;97527.00;;;24.81;39.49
80321;BME280;69633;47.066;15.450;2023-05-06T10:25:38;97530.03;;;24.83;39.12
80321;BME280;69633;47.066;15.450;2023-05-06T10:28:06;97531.91;;;24.70;39.04
80321;BME280;69633;47.066;15.450;2023-05-06T10:30:36;97522.72;;;24.99;38.34
80321;BME280;69633;47.066;15.450;2023-05-06T10:33:11;97522.97;;;25.05;37.59
80321;BME280;69633;47.066;15.450;2023-05-06T10:38:41;97515.69;;;24.66;38.85
80321;BME280;69633;47.066;15.450;2023-05-06T10:41:08;97509.66;;;24.59;39.02
80321;BME280;69633;47.066;15.450;2023-05-06T10:43:38;97507.66;;;24.43;39.74
80321;BME280;69633;47.066;15.450;2023-05-06T10:46:12;97512.69;;;24.44;40.21
80321;BME280;69633;47.066;15.450;2023-05-06T10:52:11;97495.88;;;25.18;38.73
80321;BME280;69633;47.066;15.450;2023-05-06T10:54:49;97490.72;;;25.97;37.08
80321;BME280;69633;47.066;15.450;2023-05-06T10:57:15;97478.41;;;25.92;36.99
80321;BME280;69633;47.066;15.450;2023-05-06T10:59:47;97479.94;;;25.65;37.69
80321;BME280;69633;47.066;15.450;2023-05-06T11:02:13;97485.59;;;25.25;38.30
80321;BME280;69633;47.066;15.450;2023-05-06T11:04:41;97481.28;;;25.12;38.27
80321;BME280;69633;47.066;15.450;2023-05-06T11:07:11;97482.88;;;25.09;37.77
80321;BME280;69633;47.066;15.450;2023-05-06T11:09:59;97486.25;;;24.81;37.97
80321;BME280;69633;47.066;15.450;2023-05-06T11:12:43;97488.84;;;24.88;37.83
80321;BME280;69633;47.066;15.450;2023-05-06T11:15:37;97492.06;;;25.15;38.26
80321;BME280;69633;47.066;15.450;2023-05-06T11:26:10;97469.78;;;25.36;37.34
80321;BME280;69633;47.066;15.450;2023-05-06T11:28:37;97467.41;;;25.55;37.23
80321;BME280;69633;47.066;15.450;2023-05-06T11:31:03;97468.53;;;25.70;37.21
80321;BME280;69633;47.066;15.450;2023-05-06T11:33:32;97475.72;;;25.76;36.75
80321;BME280;69633;47.066;15.450;2023-05-06T11:35:59;97473.25;;;25.82;36.80
80321;BME280;69633;47.066;15.450;2023-05-06T11:38:25;97469.19;;;26.15;36.41
80321;BME280;69633;47.066;15.450;2023-05-06T11:40:51;97472.66;;;26.03;36.14
80321;BME280;69633;47.066;15.450;2023-05-06T11:43:16;97477.44;;;25.99;36.67
80321;BME280;69633;47.066;15.450;2023-05-06T11:45:43;97474.59;;;25.90;36.46
80321;BME280;69633;47.066;15.450;2023-05-06T11:48:13;97465.81;;;25.70;36.25
80321;BME280;69633;47.066;15.450;2023-05-06T11:50:43;97471.13;;;25.44;36.78
80321;BME280;69633;47.066;15.450;2023-05-06T11:53:10;97466.78;;;25.63;36.78
80321;BME280;69633;47.066;15.450;2023-05-06T11:55:35;97466.53;;;25.58;35.83
80321;BME280;69633;47.066;15.450;2023-05-06T11:58:02;97474.91;;;25.02;36.94
80321;BME280;69633;47.066;15.450;2023-05-06T12:00:27;97481.47;;;24.88;36.95
80321;BME280;69633;47.066;15.450;2023-05-06T12:02:56;97478.81;;;25.17;36.80
80321;BME280;69633;47.066;15.450;2023-05-06T12:05:22;97484.72;;;24.80;36.68
80321;BME280;69633;47.066;15.450;2023-05-06T12:07:48;97489.81;;;24.62;37.53
80321;BME280;69633;47.066;15.450;2023-05-06T12:10:13;97482.19;;;24.73;37.54
80321;BME280;69633;47.066;15.450;2023-05-06T12:12:41;97485.66;;;24.73;37.18
80321;BME280;69633;47.066;15.450;2023-05-06T12:15:07;97477.03;;;24.94;37.70
80321;BME280;69633;47.066;15.450;2023-05-06T12:17:33;97467.38;;;25.38;37.62
80321;BME280;69633;47.066;15.450;2023-05-06T12:19:59;97470.84;;;25.84;38.23
80321;BME280;69633;47.066;15.450;2023-05-06T12:22:25;97466.91;;;26.01;38.61
80321;BME280;69633;47.066;15.450;2023-05-06T12:24:50;97468.34;;;26.18;38.16
80321;BME280;69633;47.066;15.450;2023-05-06T12:27:34;97467.56;;;26.05;37.07
80321;BME280;69633;47.066;15.450;2023-05-06T12:30:00;97473.31;;;26.07;36.48
80321;BME280;69633;47.066;15.450;2023-05-06T12:32:29;97469.38;;;26.37;35.57
80321;BME280;69633;47.066;15.450;2023-05-06T12:34:55;97471.22;;;26.53;35.40
80321;BME280;69633;47.066;15.450;2023-05-06T12:37:28;97467.09;;;26.35;34.42
80321;BME280;69633;47.066;15.450;2023-05-06T12:39:54;97462.34;;;26.11;34.47
80321;BME280;69633;47.066;15.450;2023-05-06T12:42:23;97466.03;;;26.04;34.27
80321;BME280;69633;47.066;15.450;2023-05-06T12:44:48;97461.56;;;25.98;34.19
80321;BME280;69633;47.066;15.450;2023-05-06T12:47:19;97460.06;;;26.09;34.21
80321;BME280;69633;47.066;15.450;2023-05-06T12:52:16;97457.44;;;27.19;33.12
80321;BME280;69633;47.066;15.450;2023-05-06T12:54:42;97453.88;;;28.31;32.21
80321;BME280;69633;47.066;15.450;2023-05-06T12:57:08;97459.53;;;29.53;32.57
80321;BME280;69633;47.066;15.450;2023-05-06T12:59:35;97449.19;;;30.53;31.49
80321;BME280;69633;47.066;15.450;2023-05-06T13:02:01;97448.63;;;30.73;31.42
80321;BME280;69633;47.066;15.450;2023-05-06T13:04:26;97439.00;;;31.10;31.13
80321;BME280;69633;47.066;15.450;2023-05-06T13:06:53;97430.94;;;30.41;31.05
80321;BME280;69633;47.066;15.450;2023-05-06T13:09:18;97432.03;;;30.77;30.65
80321;BME280;69633;47.066;15.450;2023-05-06T13:11:44;97427.31;;;30.77;31.37
80321;BME280;69633;47.066;15.450;2023-05-06T13:14:09;97424.13;;;30.37;31.26